sensor_id;sensor_type;location;lat;lon;timestamp;P1;durP1;ratioP1;P2;durP2;ratioP2
39264;SDS011;42646;51.910;7.724;2024-03-22T00:00:14;24.25;;;18.90;;
39264;SDS011;42646;51.910;7.724;2024-03-22T00:02:43;24.58;;;18.08;;
39264;SDS011;42646;51.910;7.724;2024-03-22T00:05:08;25.20;;;18.63;;
39264;SDS011;42646;51.910;7.724;2024-03-22T00:07:35;24.58;;;18.70;;
39264;SDS011;42646;51.910;7.724;2024-03-22T00:10:02;26.63;;;19.48;;
39264;SDS011;42646;51.910;7.724;2024-03-22T00:12:29;26.58;;;19.83;;
39264;SDS011;42646;51.910;7.724;2024-03-22T00:14:55;28.00;;;19.40;;
39264;SDS011;42646;51.910;7.724;2024-03-22T00:17:21;28.13;;;20.30;;
39264;SDS011;42646;51.910;7.724;2024-03-22T00:19:49;26.90;;;19.95;;
39264;SDS011;42646;51.910;7.724;2024-03-22T00:22:15;31.40;;;20.48;;
39264;SDS011;42646;51.910;7.724;2024-03-22T00:24:41;29.42;;;20.65;;
39264;SDS011;42646;51.910;7.724;2024-03-22T00:27:08;31.13;;;22.33;;
39264;SDS011;42646;51.910;7.724;2024-03-22T00:29:34;32.40;;;21.30;;
39264;SDS011;42646;51.910;7.724;2024-03-22T00:32:00;32.15;;;21.63;;
39264;SDS011;42646;51.910;7.724;2024-03-22T00:34:26;33.78;;;21.58;;
39264;SDS011;42646;51.910;7.724;2024-03-22T00:36:54;34.70;;;22.08;;
39264;SDS011;42646;51.910;7.724;2024-03-22T00:39:20;37.25;;;22.80;;
39264;SDS011;42646;51.910;7.724;2024-03-22T00:41:47;37.85;;;24.05;;
39264;SDS011;42646;51.910;7.724;2024-03-22T00:44:12;38.60;;;23.98;;
39264;SDS011;42646;51.910;7.724;2024-03-22T00:46:39;39.75;;;24.23;;
39264;SDS011;42646;51.910;7.724;2024-03-22T00:49:05;37.88;;;22.90;;
39264;SDS011;42646;51.910;7.724;2024-03-22T00:51:31;36.08;;;22.55;;
39264;SDS011;42646;51.910;7.724;2024-03-22T00:53:59;39.17;;;23.58;;
39264;SDS011;42646;51.910;7.724;2024-03-22T00:56:25;38.13;;;23.90;;
39264;SDS011;42646;51.910;7.724;2024-03-22T00:58:52;38.85;;;23.92;;
39264;SDS011;42646;51.910;7.724;2024-03-22T01:01:18;39.55;;;24.38;;
39264;SDS011;42646;51.910;7.724;2024-03-22T01:03:44;40.55;;;24.13;;
39264;SDS011;42646;51.910;7.724;2024-03-22T01:06:10;39.38;;;23.60;;
39264;SDS011;42646;51.910;7.724;2024-03-22T01:08:37;42.17;;;24.63;;
39264;SDS011;42646;51.910;7.724;2024-03-22T01:11:04;40.20;;;23.67;;
39264;SDS011;42646;51.910;7.724;2024-03-22T01:13:31;37.78;;;22.95;;
39264;SDS011;42646;51.910;7.724;2024-03-22T01:15:56;42.42;;;24.90;;
39264;SDS011;42646;51.910;7.724;2024-03-22T01:18:23;36.53;;;21.55;;
39264;SDS011;42646;51.910;7.724;2024-03-22T01:20:49;39.13;;;22.52;;
39264;SDS011;42646;51.910;7.724;2024-03-22T01:23:16;41.72;;;23.20;;
39264;SDS011;42646;51.910;7.724;2024-03-22T01:25:41;41.80;;;23.17;;
39264;SDS011;42646;51.910;7.724;2024-03-22T01:28:09;41.90;;;23.98;;
39264;SDS011;42646;51.910;7.724;2024-03-22T01:30:36;38.67;;;23.40;;
39264;SDS011;42646;51.910;7.724;2024-03-22T01:33:02;40.72;;;23.73;;
39264;SDS011;42646;51.910;7.724;2024-03-22T01:35:28;42.55;;;24.08;;
39264;SDS011;42646;51.910;7.724;2024-03-22T01:37:55;40.58;;;23.70;;
39264;SDS011;42646;51.910;7.724;2024-03-22T01:40:20;41.22;;;23.45;;
39264;SDS011;42646;51.910;7.724;2024-03-22T01:42:49;42.55;;;23.58;;
39264;SDS011;42646;51.910;7.724;2024-03-22T01:45:19;37.95;;;22.85;;
39264;SDS011;42646;51.910;7.724;2024-03-22T01:47:48;36.83;;;21.63;;
39264;SDS011;42646;51.910;7.724;2024-03-22T01:50:13;42.95;;;23.52;;
39264;SDS011;42646;51.910;7.724;2024-03-22T01:52:41;37.22;;;20.83;;
39264;SDS011;42646;51.910;7.724;2024-03-22T01:55:07;36.25;;;20.70;;
39264;SDS011;42646;51.910;7.724;2024-03-22T01:57:34;37.45;;;21.40;;
39264;SDS011;42646;51.910;7.724;2024-03-22T02:00:01;36.65;;;21.17;;
39264;SDS011;42646;51.910;7.724;2024-03-22T02:02:40;37.70;;;20.80;;
39264;SDS011;42646;51.910;7.724;2024-03-22T02:05:12;38.25;;;21.15;;
39264;SDS011;42646;51.910;7.724;2024-03-22T02:07:40;35.67;;;20.40;;
39264;SDS011;42646;51.910;7.724;2024-03-22T02:10:06;36.03;;;20.10;;
39264;SDS011;42646;51.910;7.724;2024-03-22T02:12:36;36.78;;;20.52;;
39264;SDS011;42646;51.910;7.724;2024-03-22T02:15:02;35.33;;;20.10;;
39264;SDS011;42646;51.910;7.724;2024-03-22T02:17:29;35.00;;;20.20;;
39264;SDS011;42646;51.910;7.724;2024-03-22T02:19:56;35.92;;;20.35;;
39264;SDS011;42646;51.910;7.724;2024-03-22T02:22:22;35.80;;;20.65;;
39264;SDS011;42646;51.910;7.724;2024-03-22T02:24:50;34.72;;;19.73;;
39264;SDS011;42646;51.910;7.724;2024-03-22T02:27:16;32.75;;;19.67;;
39264;SDS011;42646;51.910;7.724;2024-03-22T02:29:42;35.92;;;20.38;;
39264;SDS011;42646;51.910;7.724;2024-03-22T02:32:09;36.38;;;19.77;;
39264;SDS011;42646;51.910;7.724;2024-03-22T02:34:35;33.88;;;19.20;;
39264;SDS011;42646;51.910;7.724;2024-03-22T02:37:02;34.60;;;19.30;;
39264;SDS011;42646;51.910;7.724;2024-03-22T02:39:28;32.75;;;19.15;;
39264;SDS011;42646;51.910;7.724;2024-03-22T02:41:56;31.42;;;18.00;;
39264;SDS011;42646;51.910;7.724;2024-03-22T02:44:22;32.42;;;18.15;;
39264;SDS011;42646;51.910;7.724;2024-03-22T02:46:49;34.28;;;18.40;;
39264;SDS011;42646;51.910;7.724;2024-03-22T02:49:14;32.58;;;18.02;;
39264;SDS011;42646;51.910;7.724;2024-03-22T02:51:41;31.98;;;17.80;;
39264;SDS011;42646;51.910;7.724;2024-03-22T02:54:07;33.63;;;18.73;;
39264;SDS011;42646;51.910;7.724;2024-03-22T02:56:33;31.95;;;18.30;;
39264;SDS011;42646;51.910;7.724;2024-03-22T02:59:01;32.92;;;18.58;;
39264;SDS011;42646;51.910;7.724;2024-03-22T03:01:27;33.92;;;18.67;;
39264;SDS011;42646;51.910;7.724;2024-03-22T03:03:53;31.88;;;18.20;;
39264;SDS011;42646;51.910;7.724;2024-03-22T03:06:20;34.28;;;18.38;;
39264;SDS011;42646;51.910;7.724;2024-03-22T03:08:46;35.72;;;19.13;;
39264;SDS011;42646;51.910;7.724;2024-03-22T03:11:12;33.25;;;18.02;;
39264;SDS011;42646;51.910;7.724;2024-03-22T03:13:39;30.95;;;16.85;;
39264;SDS011;42646;51.910;7.724;2024-03-22T03:16:07;36.38;;;19.35;;
39264;SDS011;42646;51.910;7.724;2024-03-22T03:18:33;34.90;;;18.88;;
39264;SDS011;42646;51.910;7.724;2024-03-22T03:21:00;36.28;;;18.92;;
39264;SDS011;42646;51.910;7.724;2024-03-22T03:23:26;34.13;;;19.23;;
39264;SDS011;42646;51.910;7.724;2024-03-22T03:25:52;32.72;;;18.90;;
39264;SDS011;42646;51.910;7.724;2024-03-22T03:28:18;33.45;;;18.80;;
39264;SDS011;42646;51.910;7.724;2024-03-22T03:30:45;32.80;;;18.08;;
39264;SDS011;42646;51.910;7.724;2024-03-22T03:33:12;31.13;;;17.65;;
39264;SDS011;42646;51.910;7.724;2024-03-22T03:35:39;32.70;;;18.45;;
39264;SDS011;42646;51.910;7.724;2024-03-22T03:38:04;36.97;;;18.25;;
39264;SDS011;42646;51.910;7.724;2024-03-22T03:40:31;32.13;;;18.33;;
39264;SDS011;42646;51.910;7.724;2024-03-22T03:42:57;32.67;;;18.98;;
39264;SDS011;42646;51.910;7.724;2024-03-22T03:45:23;33.85;;;18.27;;
39264;SDS011;42646;51.910;7.724;2024-03-22T03:47:49;31.92;;;17.88;;
39264;SDS011;42646;51.910;7.724;2024-03-22T03:50:17;33.97;;;18.13;;
39264;SDS011;42646;51.910;7.724;2024-03-22T03:52:43;32.60;;;17.95;;
39264;SDS011;42646;51.910;7.724;2024-03-22T03:55:09;32.20;;;17.83;;
39264;SDS011;42646;51.910;7.724;2024-03-22T03:57:35;33.20;;;18.58;;
39264;SDS011;42646;51.910;7.724;2024-03-22T04:00:02;31.10;;;17.83;;
39264;SDS011;42646;51.910;7.724;2024-03-22T04:02:31;32.50;;;18.13;;
39264;SDS011;42646;51.910;7.724;2024-03-22T04:04:57;32.00;;;18.02;;
39264;SDS011;42646;51.910;7.724;2024-03-22T04:07:24;35.83;;;18.52;;
39264;SDS011;42646;51.910;7.724;2024-03-22T04:09:51;32.17;;;18.33;;
39264;SDS011;42646;51.910;7.724;2024-03-22T04:12:17;33.45;;;18.60;;
39264;SDS011;42646;51.910;7.724;2024-03-22T04:14:44;35.20;;;18.35;;
39264;SDS011;42646;51.910;7.724;2024-03-22T04:17:10;32.75;;;18.30;;
39264;SDS011;42646;51.910;7.724;2024-03-22T04:19:36;32.72;;;17.38;;
39264;SDS011;42646;51.910;7.724;2024-03-22T04:22:02;33.08;;;17.88;;
39264;SDS011;42646;51.910;7.724;2024-03-22T04:24:30;30.88;;;17.30;;
39264;SDS011;42646;51.910;7.724;2024-03-22T04:26:57;33.10;;;18.13;;
39264;SDS011;42646;51.910;7.724;2024-03-22T04:29:23;34.05;;;18.25;;
39264;SDS011;42646;51.910;7.724;2024-03-22T04:31:49;31.98;;;17.20;;
39264;SDS011;42646;51.910;7.724;2024-03-22T04:34:16;32.33;;;17.73;;
39264;SDS011;42646;51.910;7.724;2024-03-22T04:36:42;32.55;;;17.40;;
39264;SDS011;42646;51.910;7.724;2024-03-22T04:39:09;32.03;;;18.20;;
39264;SDS011;42646;51.910;7.724;2024-03-22T04:41:38;32.58;;;17.77;;
39264;SDS011;42646;51.910;7.724;2024-03-22T04:44:05;37.75;;;20.40;;
39264;SDS011;42646;51.910;7.724;2024-03-22T04:46:31;35.05;;;19.33;;
39264;SDS011;42646;51.910;7.724;2024-03-22T04:48:57;34.58;;;18.10;;
39264;SDS011;42646;51.910;7.724;2024-03-22T04:51:23;30.52;;;17.27;;
39264;SDS011;42646;51.910;7.724;2024-03-22T04:53:50;32.88;;;18.00;;
39264;SDS011;42646;51.910;7.724;2024-03-22T04:56:16;34.80;;;19.00;;
39264;SDS011;42646;51.910;7.724;2024-03-22T04:58:44;30.17;;;17.77;;
39264;SDS011;42646;51.910;7.724;2024-03-22T05:01:09;31.08;;;17.85;;
39264;SDS011;42646;51.910;7.724;2024-03-22T05:03:38;34.35;;;18.88;;
39264;SDS011;42646;51.910;7.724;2024-03-22T05:06:04;34.58;;;18.40;;
39264;SDS011;42646;51.910;7.724;2024-03-22T05:08:31;34.28;;;18.98;;
39264;SDS011;42646;51.910;7.724;2024-03-22T05:10:57;31.48;;;18.15;;
39264;SDS011;42646;51.910;7.724;2024-03-22T05:13:24;33.28;;;17.67;;
39264;SDS011;42646;51.910;7.724;2024-03-22T05:15:51;29.92;;;17.73;;
39264;SDS011;42646;51.910;7.724;2024-03-22T05:18:18;31.23;;;17.80;;
39264;SDS011;42646;51.910;7.724;2024-03-22T05:20:44;35.45;;;18.83;;
39264;SDS011;42646;51.910;7.724;2024-03-22T05:23:11;32.35;;;18.75;;
39264;SDS011;42646;51.910;7.724;2024-03-22T05:25:37;31.60;;;17.42;;
39264;SDS011;42646;51.910;7.724;2024-03-22T05:28:03;31.13;;;18.95;;
39264;SDS011;42646;51.910;7.724;2024-03-22T05:30:29;33.47;;;18.77;;
39264;SDS011;42646;51.910;7.724;2024-03-22T05:32:57;32.35;;;18.83;;
39264;SDS011;42646;51.910;7.724;2024-03-22T05:35:23;31.75;;;17.35;;
39264;SDS011;42646;51.910;7.724;2024-03-22T05:37:50;31.45;;;18.27;;
39264;SDS011;42646;51.910;7.724;2024-03-22T05:40:16;32.83;;;17.88;;
39264;SDS011;42646;51.910;7.724;2024-03-22T05:42:43;32.78;;;18.33;;
39264;SDS011;42646;51.910;7.724;2024-03-22T05:45:09;34.83;;;19.73;;
39264;SDS011;42646;51.910;7.724;2024-03-22T05:47:35;32.75;;;17.83;;
39264;SDS011;42646;51.910;7.724;2024-03-22T05:50:04;34.78;;;18.85;;
39264;SDS011;42646;51.910;7.724;2024-03-22T05:52:33;32.22;;;18.15;;
39264;SDS011;42646;51.910;7.724;2024-03-22T05:54:59;28.60;;;17.23;;
39264;SDS011;42646;51.910;7.724;2024-03-22T05:57:26;30.70;;;17.40;;
39264;SDS011;42646;51.910;7.724;2024-03-22T05:59:52;33.80;;;17.35;;
39264;SDS011;42646;51.910;7.724;2024-03-22T06:02:19;30.88;;;16.73;;
39264;SDS011;42646;51.910;7.724;2024-03-22T06:04:45;36.20;;;20.10;;
39264;SDS011;42646;51.910;7.724;2024-03-22T06:07:14;30.40;;;18.13;;
39264;SDS011;42646;51.910;7.724;2024-03-22T06:09:41;29.15;;;17.70;;
39264;SDS011;42646;51.910;7.724;2024-03-22T06:12:12;29.08;;;16.90;;
39264;SDS011;42646;51.910;7.724;2024-03-22T06:14:39;30.70;;;17.88;;
39264;SDS011;42646;51.910;7.724;2024-03-22T06:17:06;32.65;;;18.33;;
39264;SDS011;42646;51.910;7.724;2024-03-22T06:19:32;29.20;;;17.25;;
39264;SDS011;42646;51.910;7.724;2024-03-22T06:21:58;30.58;;;17.73;;
39264;SDS011;42646;51.910;7.724;2024-03-22T06:24:25;25.08;;;16.25;;
39264;SDS011;42646;51.910;7.724;2024-03-22T06:26:52;29.10;;;16.83;;
39264;SDS011;42646;51.910;7.724;2024-03-22T06:29:18;29.05;;;16.75;;
39264;SDS011;42646;51.910;7.724;2024-03-22T06:31:45;29.35;;;16.83;;
39264;SDS011;42646;51.910;7.724;2024-03-22T06:34:11;30.23;;;16.92;;
39264;SDS011;42646;51.910;7.724;2024-03-22T06:36:38;27.75;;;16.90;;
39264;SDS011;42646;51.910;7.724;2024-03-22T06:39:04;27.73;;;16.23;;
39264;SDS011;42646;51.910;7.724;2024-03-22T06:41:34;29.40;;;17.02;;
39264;SDS011;42646;51.910;7.724;2024-03-22T06:44:00;28.20;;;16.05;;
39264;SDS011;42646;51.910;7.724;2024-03-22T06:46:27;27.13;;;16.42;;
39264;SDS011;42646;51.910;7.724;2024-03-22T06:48:53;26.05;;;15.88;;
39264;SDS011;42646;51.910;7.724;2024-03-22T06:51:20;28.52;;;15.93;;
39264;SDS011;42646;51.910;7.724;2024-03-22T06:53:46;27.42;;;15.90;;
39264;SDS011;42646;51.910;7.724;2024-03-22T06:56:13;27.90;;;15.57;;
39264;SDS011;42646;51.910;7.724;2024-03-22T06:58:40;24.42;;;15.43;;
39264;SDS011;42646;51.910;7.724;2024-03-22T07:01:07;26.90;;;16.10;;
39264;SDS011;42646;51.910;7.724;2024-03-22T07:03:33;25.15;;;15.32;;
39264;SDS011;42646;51.910;7.724;2024-03-22T07:05:59;28.85;;;16.30;;
39264;SDS011;42646;51.910;7.724;2024-03-22T07:08:25;28.00;;;15.98;;
39264;SDS011;42646;51.910;7.724;2024-03-22T07:10:53;24.52;;;14.80;;
39264;SDS011;42646;51.910;7.724;2024-03-22T07:13:20;26.90;;;15.75;;
39264;SDS011;42646;51.910;7.724;2024-03-22T07:15:47;23.80;;;15.20;;
39264;SDS011;42646;51.910;7.724;2024-03-22T07:18:14;24.23;;;14.65;;
39264;SDS011;42646;51.910;7.724;2024-03-22T07:20:41;25.38;;;15.50;;
39264;SDS011;42646;51.910;7.724;2024-03-22T07:23:08;26.73;;;16.42;;
39264;SDS011;42646;51.910;7.724;2024-03-22T07:25:33;24.48;;;15.60;;
39264;SDS011;42646;51.910;7.724;2024-03-22T07:28:00;27.70;;;16.38;;
39264;SDS011;42646;51.910;7.724;2024-03-22T07:30:26;29.40;;;15.30;;
39264;SDS011;42646;51.910;7.724;2024-03-22T07:32:54;25.92;;;15.43;;
39264;SDS011;42646;51.910;7.724;2024-03-22T07:35:20;22.20;;;14.50;;
39264;SDS011;42646;51.910;7.724;2024-03-22T07:37:47;25.85;;;16.52;;
39264;SDS011;42646;51.910;7.724;2024-03-22T07:40:12;24.75;;;14.88;;
39264;SDS011;42646;51.910;7.724;2024-03-22T07:42:39;24.08;;;15.05;;
39264;SDS011;42646;51.910;7.724;2024-03-22T07:45:05;25.77;;;15.50;;
39264;SDS011;42646;51.910;7.724;2024-03-22T07:47:32;24.30;;;14.27;;
39264;SDS011;42646;51.910;7.724;2024-03-22T07:50:00;25.45;;;14.57;;
39264;SDS011;42646;51.910;7.724;2024-03-22T07:52:27;24.90;;;14.43;;
39264;SDS011;42646;51.910;7.724;2024-03-22T07:54:53;26.80;;;15.25;;
39264;SDS011;42646;51.910;7.724;2024-03-22T07:57:20;25.00;;;14.25;;
39264;SDS011;42646;51.910;7.724;2024-03-22T07:59:46;24.35;;;14.65;;
39264;SDS011;42646;51.910;7.724;2024-03-22T08:02:13;22.55;;;14.75;;
39264;SDS011;42646;51.910;7.724;2024-03-22T08:04:38;24.25;;;15.30;;
39264;SDS011;42646;51.910;7.724;2024-03-22T08:07:06;23.75;;;15.38;;
39264;SDS011;42646;51.910;7.724;2024-03-22T08:09:32;21.27;;;14.00;;
39264;SDS011;42646;51.910;7.724;2024-03-22T08:11:59;24.17;;;15.38;;
39264;SDS011;42646;51.910;7.724;2024-03-22T08:14:24;24.45;;;14.73;;
39264;SDS011;42646;51.910;7.724;2024-03-22T08:16:51;22.08;;;13.32;;
39264;SDS011;42646;51.910;7.724;2024-03-22T08:19:17;22.58;;;14.20;;
39264;SDS011;42646;51.910;7.724;2024-03-22T08:21:44;25.08;;;14.07;;
39264;SDS011;42646;51.910;7.724;2024-03-22T08:24:11;23.75;;;14.07;;
39264;SDS011;42646;51.910;7.724;2024-03-22T08:26:37;26.42;;;14.52;;
39264;SDS011;42646;51.910;7.724;2024-03-22T08:29:03;21.42;;;13.80;;
39264;SDS011;42646;51.910;7.724;2024-03-22T08:31:30;19.25;;;12.68;;
39264;SDS011;42646;51.910;7.724;2024-03-22T08:33:56;25.42;;;14.13;;
39264;SDS011;42646;51.910;7.724;2024-03-22T08:36:23;25.70;;;14.43;;
39264;SDS011;42646;51.910;7.724;2024-03-22T08:38:49;21.25;;;13.13;;
39264;SDS011;42646;51.910;7.724;2024-03-22T08:41:17;27.58;;;14.57;;
39264;SDS011;42646;51.910;7.724;2024-03-22T08:43:43;23.00;;;13.77;;
39264;SDS011;42646;51.910;7.724;2024-03-22T08:46:10;23.67;;;13.98;;
39264;SDS011;42646;51.910;7.724;2024-03-22T08:48:36;21.88;;;14.35;;
39264;SDS011;42646;51.910;7.724;2024-03-22T08:51:03;23.52;;;14.13;;
39264;SDS011;42646;51.910;7.724;2024-03-22T08:53:30;21.77;;;13.18;;
39264;SDS011;42646;51.910;7.724;2024-03-22T08:55:57;21.45;;;13.27;;
39264;SDS011;42646;51.910;7.724;2024-03-22T08:58:25;20.80;;;12.90;;
39264;SDS011;42646;51.910;7.724;2024-03-22T09:00:52;22.10;;;12.85;;
39264;SDS011;42646;51.910;7.724;2024-03-22T09:03:18;20.05;;;13.00;;
39264;SDS011;42646;51.910;7.724;2024-03-22T09:05:46;20.73;;;13.65;;
39264;SDS011;42646;51.910;7.724;2024-03-22T09:08:12;20.50;;;13.40;;
39264;SDS011;42646;51.910;7.724;2024-03-22T09:10:39;21.10;;;13.48;;
39264;SDS011;42646;51.910;7.724;2024-03-22T09:13:05;19.95;;;12.55;;
39264;SDS011;42646;51.910;7.724;2024-03-22T09:15:33;20.95;;;11.98;;
39264;SDS011;42646;51.910;7.724;2024-03-22T09:18:00;22.98;;;12.45;;
39264;SDS011;42646;51.910;7.724;2024-03-22T09:20:26;18.77;;;12.02;;
39264;SDS011;42646;51.910;7.724;2024-03-22T09:22:53;17.85;;;12.18;;
39264;SDS011;42646;51.910;7.724;2024-03-22T09:25:19;20.65;;;12.45;;
39264;SDS011;42646;51.910;7.724;2024-03-22T09:27:45;18.95;;;11.98;;
39264;SDS011;42646;51.910;7.724;2024-03-22T09:30:11;19.70;;;11.57;;
39264;SDS011;42646;51.910;7.724;2024-03-22T09:32:41;18.33;;;11.73;;
39264;SDS011;42646;51.910;7.724;2024-03-22T09:35:08;18.23;;;11.68;;
39264;SDS011;42646;51.910;7.724;2024-03-22T09:37:35;17.98;;;11.32;;
39264;SDS011;42646;51.910;7.724;2024-03-22T09:40:01;19.63;;;11.65;;
39264;SDS011;42646;51.910;7.724;2024-03-22T09:42:32;18.88;;;11.63;;
39264;SDS011;42646;51.910;7.724;2024-03-22T09:45:02;17.75;;;11.57;;
39264;SDS011;42646;51.910;7.724;2024-03-22T09:47:29;16.98;;;11.13;;
39264;SDS011;42646;51.910;7.724;2024-03-22T09:49:58;19.40;;;10.98;;
39264;SDS011;42646;51.910;7.724;2024-03-22T09:52:26;18.20;;;11.40;;
39264;SDS011;42646;51.910;7.724;2024-03-22T09:54:53;18.33;;;10.77;;
39264;SDS011;42646;51.910;7.724;2024-03-22T09:57:20;19.48;;;10.93;;
39264;SDS011;42646;51.910;7.724;2024-03-22T09:59:48;17.58;;;11.93;;
39264;SDS011;42646;51.910;7.724;2024-03-22T10:02:16;20.95;;;11.18;;
39264;SDS011;42646;51.910;7.724;2024-03-22T10:04:43;19.17;;;11.65;;
39264;SDS011;42646;51.910;7.724;2024-03-22T10:07:11;18.77;;;11.88;;
39264;SDS011;42646;51.910;7.724;2024-03-22T10:09:39;19.08;;;11.85;;
39264;SDS011;42646;51.910;7.724;2024-03-22T10:12:06;18.52;;;11.98;;
39264;SDS011;42646;51.910;7.724;2024-03-22T10:14:32;18.55;;;12.00;;
39264;SDS011;42646;51.910;7.724;2024-03-22T10:17:00;16.52;;;11.32;;
39264;SDS011;42646;51.910;7.724;2024-03-22T10:19:26;18.83;;;11.82;;
39264;SDS011;42646;51.910;7.724;2024-03-22T10:21:59;16.63;;;10.15;;
39264;SDS011;42646;51.910;7.724;2024-03-22T10:24:26;19.55;;;11.18;;
39264;SDS011;42646;51.910;7.724;2024-03-22T10:26:54;17.05;;;10.23;;
39264;SDS011;42646;51.910;7.724;2024-03-22T10:29:19;17.17;;;10.57;;
39264;SDS011;42646;51.910;7.724;2024-03-22T10:31:47;17.17;;;11.07;;
39264;SDS011;42646;51.910;7.724;2024-03-22T10:34:13;16.17;;;11.15;;
39264;SDS011;42646;51.910;7.724;2024-03-22T10:36:41;16.55;;;10.73;;
39264;SDS011;42646;51.910;7.724;2024-03-22T10:39:07;16.85;;;11.15;;
39264;SDS011;42646;51.910;7.724;2024-03-22T10:41:37;19.92;;;12.65;;
39264;SDS011;42646;51.910;7.724;2024-03-22T10:44:03;18.65;;;11.55;;
39264;SDS011;42646;51.910;7.724;2024-03-22T10:46:30;18.98;;;11.73;;
39264;SDS011;42646;51.910;7.724;2024-03-22T10:48:56;16.00;;;10.65;;
39264;SDS011;42646;51.910;7.724;2024-03-22T10:51:24;18.52;;;11.85;;
39264;SDS011;42646;51.910;7.724;2024-03-22T10:53:51;18.15;;;11.07;;
39264;SDS011;42646;51.910;7.724;2024-03-22T10:56:21;19.15;;;11.23;;
39264;SDS011;42646;51.910;7.724;2024-03-22T10:58:50;16.27;;;10.93;;
39264;SDS011;42646;51.910;7.724;2024-03-22T11:01:23;19.17;;;12.00;;
39264;SDS011;42646;51.910;7.724;2024-03-22T11:03:50;18.55;;;12.10;;
39264;SDS011;42646;51.910;7.724;2024-03-22T11:06:20;16.98;;;11.85;;
39264;SDS011;42646;51.910;7.724;2024-03-22T11:08:50;19.25;;;12.45;;
39264;SDS011;42646;51.910;7.724;2024-03-22T11:11:18;18.25;;;12.25;;
39264;SDS011;42646;51.910;7.724;2024-03-22T11:13:46;18.25;;;11.90;;
39264;SDS011;42646;51.910;7.724;2024-03-22T11:16:15;19.33;;;12.13;;
39264;SDS011;42646;51.910;7.724;2024-03-22T11:18:40;19.63;;;12.18;;
39264;SDS011;42646;51.910;7.724;2024-03-22T11:21:08;18.38;;;12.68;;
39264;SDS011;42646;51.910;7.724;2024-03-22T11:23:34;17.08;;;11.43;;
39264;SDS011;42646;51.910;7.724;2024-03-22T11:26:02;18.00;;;12.23;;
39264;SDS011;42646;51.910;7.724;2024-03-22T11:28:28;20.17;;;12.20;;
39264;SDS011;42646;51.910;7.724;2024-03-22T11:30:55;18.38;;;12.23;;
39264;SDS011;42646;51.910;7.724;2024-03-22T11:33:22;18.90;;;12.23;;
39264;SDS011;42646;51.910;7.724;2024-03-22T11:35:49;19.75;;;13.43;;
39264;SDS011;42646;51.910;7.724;2024-03-22T11:38:15;19.23;;;12.82;;
39264;SDS011;42646;51.910;7.724;2024-03-22T11:40:42;21.08;;;13.73;;
39264;SDS011;42646;51.910;7.724;2024-03-22T11:43:08;21.60;;;12.88;;
39264;SDS011;42646;51.910;7.724;2024-03-22T11:45:36;19.25;;;13.18;;
39264;SDS011;42646;51.910;7.724;2024-03-22T11:48:03;19.08;;;12.98;;
39264;SDS011;42646;51.910;7.724;2024-03-22T11:50:31;18.70;;;12.90;;
39264;SDS011;42646;51.910;7.724;2024-03-22T11:52:57;21.65;;;13.30;;
39264;SDS011;42646;51.910;7.724;2024-03-22T11:55:26;18.92;;;12.77;;
39264;SDS011;42646;51.910;7.724;2024-03-22T11:57:53;19.77;;;13.50;;
39264;SDS011;42646;51.910;7.724;2024-03-22T12:00:19;19.48;;;12.73;;
39264;SDS011;42646;51.910;7.724;2024-03-22T12:02:48;20.05;;;13.15;;
39264;SDS011;42646;51.910;7.724;2024-03-22T12:05:14;20.23;;;12.98;;
39264;SDS011;42646;51.910;7.724;2024-03-22T12:07:41;22.13;;;14.13;;
39264;SDS011;42646;51.910;7.724;2024-03-22T12:10:08;20.48;;;13.73;;
39264;SDS011;42646;51.910;7.724;2024-03-22T12:12:34;19.50;;;13.40;;
39264;SDS011;42646;51.910;7.724;2024-03-22T12:15:02;23.40;;;15.05;;
39264;SDS011;42646;51.910;7.724;2024-03-22T12:17:28;22.90;;;14.60;;
39264;SDS011;42646;51.910;7.724;2024-03-22T12:19:54;21.10;;;14.95;;
39264;SDS011;42646;51.910;7.724;2024-03-22T12:22:21;19.83;;;14.20;;
39264;SDS011;42646;51.910;7.724;2024-03-22T12:24:49;23.00;;;15.50;;
39264;SDS011;42646;51.910;7.724;2024-03-22T12:27:15;23.15;;;14.63;;
39264;SDS011;42646;51.910;7.724;2024-03-22T12:29:42;23.35;;;15.52;;
39264;SDS011;42646;51.910;7.724;2024-03-22T12:32:07;22.73;;;15.93;;
39264;SDS011;42646;51.910;7.724;2024-03-22T12:34:35;23.65;;;15.82;;
39264;SDS011;42646;51.910;7.724;2024-03-22T12:37:01;27.20;;;16.63;;
39264;SDS011;42646;51.910;7.724;2024-03-22T12:39:28;24.90;;;17.23;;
39264;SDS011;42646;51.910;7.724;2024-03-22T12:41:55;25.75;;;17.38;;
39264;SDS011;42646;51.910;7.724;2024-03-22T12:44:22;25.13;;;16.42;;
39264;SDS011;42646;51.910;7.724;2024-03-22T12:46:48;24.65;;;16.60;;
39264;SDS011;42646;51.910;7.724;2024-03-22T12:49:16;27.65;;;18.20;;
39264;SDS011;42646;51.910;7.724;2024-03-22T12:51:42;25.02;;;16.63;;
39264;SDS011;42646;51.910;7.724;2024-03-22T12:54:09;27.15;;;17.95;;
39264;SDS011;42646;51.910;7.724;2024-03-22T12:56:35;25.80;;;16.85;;
39264;SDS011;42646;51.910;7.724;2024-03-22T12:59:05;27.52;;;17.52;;
39264;SDS011;42646;51.910;7.724;2024-03-22T13:01:32;26.77;;;17.27;;
39264;SDS011;42646;51.910;7.724;2024-03-22T13:03:59;27.75;;;17.42;;
39264;SDS011;42646;51.910;7.724;2024-03-22T13:06:25;24.27;;;16.98;;
39264;SDS011;42646;51.910;7.724;2024-03-22T13:08:52;26.50;;;17.73;;
39264;SDS011;42646;51.910;7.724;2024-03-22T13:11:17;27.60;;;18.40;;
39264;SDS011;42646;51.910;7.724;2024-03-22T13:13:44;24.48;;;16.77;;
39264;SDS011;42646;51.910;7.724;2024-03-22T13:16:11;27.90;;;17.27;;
39264;SDS011;42646;51.910;7.724;2024-03-22T13:18:40;23.58;;;17.00;;
39264;SDS011;42646;51.910;7.724;2024-03-22T13:21:05;25.02;;;16.73;;
39264;SDS011;42646;51.910;7.724;2024-03-22T13:23:32;25.95;;;17.60;;
39264;SDS011;42646;51.910;7.724;2024-03-22T13:26:02;26.05;;;17.05;;
39264;SDS011;42646;51.910;7.724;2024-03-22T13:28:29;22.70;;;15.80;;
39264;SDS011;42646;51.910;7.724;2024-03-22T13:30:59;24.38;;;16.15;;
39264;SDS011;42646;51.910;7.724;2024-03-22T13:35:55;27.05;;;17.15;;
39264;SDS011;42646;51.910;7.724;2024-03-22T13:38:21;24.15;;;16.77;;
39264;SDS011;42646;51.910;7.724;2024-03-22T13:40:52;23.75;;;15.88;;
39264;SDS011;42646;51.910;7.724;2024-03-22T13:43:19;23.48;;;16.10;;
39264;SDS011;42646;51.910;7.724;2024-03-22T13:45:45;23.67;;;15.45;;
39264;SDS011;42646;51.910;7.724;2024-03-22T13:48:14;23.65;;;16.30;;
39264;SDS011;42646;51.910;7.724;2024-03-22T13:50:41;22.92;;;16.05;;
39264;SDS011;42646;51.910;7.724;2024-03-22T13:53:08;22.55;;;16.25;;
39264;SDS011;42646;51.910;7.724;2024-03-22T13:55:35;23.38;;;15.55;;
39264;SDS011;42646;51.910;7.724;2024-03-22T13:58:01;25.05;;;16.45;;
39264;SDS011;42646;51.910;7.724;2024-03-22T14:00:27;22.33;;;16.13;;
39264;SDS011;42646;51.910;7.724;2024-03-22T14:02:54;23.10;;;16.38;;
39264;SDS011;42646;51.910;7.724;2024-03-22T14:05:21;26.52;;;16.23;;
39264;SDS011;42646;51.910;7.724;2024-03-22T14:07:51;23.15;;;15.48;;
39264;SDS011;42646;51.910;7.724;2024-03-22T14:10:17;22.80;;;15.23;;
39264;SDS011;42646;51.910;7.724;2024-03-22T14:12:45;22.42;;;15.35;;
39264;SDS011;42646;51.910;7.724;2024-03-22T14:15:11;26.73;;;15.73;;
39264;SDS011;42646;51.910;7.724;2024-03-22T14:17:37;22.23;;;15.13;;
39264;SDS011;42646;51.910;7.724;2024-03-22T14:20:04;22.27;;;15.55;;